Weather observations for the past three days for
Marysville Municipal Airport
Imperial (Metric)
Date Time (cdt) Wind (mph) Vis. (mi.) Weather Sky Cond. Temperature (ºF) Relative Humidity Wind Chill (°F) Heat Index (°F) Pressure Precipitation (in)
Air Dwpt 6 hour altimeter (in) sea level (mb) 1 hr 3 hr 6 hr
Max. Min.
04 00:35 E 3 10.00 Fair CLR 59 33.8 39% 29.73 0.0
04 00:15 E 5 10.00 Fair CLR 59 33.8 39% 29.74 0.0
03 23:55 E 3 10.00 Fair CLR 60.8 33.8 36% 29.74 0.0
03 23:35 E 5 10.00 Fair CLR 62.6 33.8 34% 29.74 0.0
03 23:15 E 5 10.00 Fair CLR 62.6 33.8 34% 29.74 0.0
03 22:55 NE 8 10.00 Fair CLR 62.6 32 32% 29.73 0.0
03 22:35 E 7 10.00 Fair CLR 62.6 33.8 34% 29.75 0.0
03 22:15 E 7 10.00 Fair CLR 64.4 33.8 32% 29.75 0.0
03 21:55 E 7 10.00 Fair CLR 64.4 33.8 32% 29.77 0.0
03 21:35 E 6 10.00 Fair CLR 64.4 33.8 32% 29.77 0.0
03 21:15 E 5 10.00 Fair CLR 66.2 33.8 30% 29.76 0.0
03 20:55 E 5 10.00 Fair CLR 68 33.8 28% 29.76 0.0
03 20:35 NE 6 10.00 Fair CLR 68 33.8 28% 29.75 0.0
03 20:15 NE 5 10.00 Fair CLR 69.8 33.8 27% 29.75 0.0
03 19:55 NE 5 10.00 Fair CLR 69.8 33.8 27% 29.75 0.0
03 19:35 NE 6 10.00 Fair CLR 71.6 33.8 25% 29.75 0.0
03 19:15 NE 7 10.00 Fair CLR 73.4 32 22% 29.76 0.0
03 18:55 Calm 10.00 Fair CLR 77 30.2 18% 77 29.77 0.0
03 18:35 Calm 10.00 Fair CLR 77 30.2 18% 77 29.78 0.0
03 18:15 N 3 10.00 Fair CLR 78.8 28.4 16% 78 29.78 0.0
03 17:55 N 3 10.00 Fair CLR 78.8 28.4 16% 78 29.79 0.0
03 17:35 E 3 10.00 Fair CLR 78.8 28.4 16% 78 29.79 0.0
03 17:15 Calm 10.00 Fair CLR 78.8 30.2 17% 78 29.79 0.0
03 16:55 Calm 10.00 Fair CLR 78.8 30.2 17% 78 29.79 0.0
03 16:35 N 3 10.00 Fair CLR 80.6 28.4 15% 79 29.8 0.0
03 16:15 Calm 10.00 Fair CLR 78.8 28.4 16% 78 29.81 0.0
03 15:55 SE 5 10.00 Fair CLR 78.8 28.4 16% 78 29.82 0.0
03 15:35 NE 3 10.00 Fair CLR 78.8 28.4 16% 78 29.83 0.0
03 15:15 N 10 10.00 Fair CLR 78.8 28.4 16% 78 29.84 0.0
03 14:55 NE 8 10.00 Fair CLR 78.8 28.4 16% 78 29.85 0.0
03 14:35 E 3 10.00 Fair CLR 78.8 32 18% 78 29.85 0.0
03 14:15 Calm 10.00 Fair CLR 77 32 19% 77 29.86 0.0
03 13:35 Calm 10.00 Fair CLR 77 30.2 18% 77 29.87 0.0
03 13:15 N 7 10.00 Fair CLR 77 30.2 18% 77 29.88 0.0
03 12:55 N 6 10.00 Fair CLR 75.2 32 21% 76 29.88 0.0
03 12:35 NW 6 10.00 Fair CLR 73.4 32 22% 29.9 0.0
03 12:15 NW 7 7.00 Fair CLR 73.4 33.8 23% 29.9 0.0
03 11:55 W 6 10.00 Fair CLR 71.6 32 23% 29.91 0.0
03 11:35 W 8 10.00 Fair CLR 69.8 33.8 27% 29.92 0.0
03 11:15 W 7 10.00 Fair CLR 69.8 35.6 29% 29.92 0.0
03 10:55 W 13 G 16 10.00 Fair CLR 68 37.4 33% 29.92 0.0
03 10:35 W 10 10.00 Fair CLR 66.2 37.4 35% 29.92 0.0
03 10:15 SW 13 10.00 Fair CLR 66.2 39.2 37% 29.92 0.0
03 09:55 W 10 10.00 Fair CLR 64.4 39.2 40% 29.92 0.0
03 09:35 W 12 10.00 Fair CLR 62.6 37.4 39% 29.93 0.0
03 09:15 SW 10 G 16 10.00 Fair CLR 60.8 37.4 42% 29.93 0.0
03 08:55 SW 9 G 17 10.00 Fair CLR 59 37.4 45% 29.93 0.0
03 08:35 SW 7 10.00 Fair CLR 55.4 37.4 51% 29.95 0.0
03 08:15 W 8 10.00 Fair CLR 55.4 35.6 47% 29.95 0.0
03 07:55 SW 10 10.00 Fair CLR 55.4 35.6 47% 29.94 0.0
03 07:35 SW 13 G 21 10.00 Fair CLR 53.6 35.6 51% 29.91 0.0
03 07:15 SW 13 G 21 10.00 Fair CLR 53.6 33.8 47% 29.9 0.0
03 06:55 SW 14 G 20 10.00 Fair CLR 51.8 33.8 50% 29.9 0.0
03 06:35 SW 10 10.00 Fair CLR 51.8 33.8 50% 29.9 0.0
03 06:15 SW 14 G 18 10.00 Fair CLR 51.8 32 47% 29.9 0.0
03 05:55 SW 14 G 22 10.00 Fair CLR 53.6 32 44% 29.9 0.0
03 05:35 SW 13 G 18 10.00 Fair CLR 51.8 32 47% 29.9 0.0
03 05:15 SW 13 G 20 10.00 Fair CLR 53.6 32 44% 29.92 0.0
03 04:55 S 13 G 18 10.00 Fair CLR 53.6 30.2 41% 29.92 0.0
03 04:35 S 13 10.00 Fair CLR 51.8 30.2 44% 29.93 0.0
03 04:15 S 12 G 18 10.00 Fair CLR 53.6 30.2 41% 29.93 0.0
03 03:55 SW 13 G 18 10.00 Fair CLR 51.8 30.2 44% 29.94 0.0
03 03:35 S 12 G 17 10.00 Fair CLR 51.8 30.2 44% 29.94 0.0
03 03:15 S 13 G 20 10.00 Fair CLR 51.8 30.2 44% 29.94 0.0
03 02:55 S 12 10.00 Fair CLR 51.8 30.2 44% 29.94 0.0
03 02:35 S 12 G 16 10.00 Fair CLR 51.8 28.4 41% 29.95 0.0
03 02:15 S 12 10.00 Fair CLR 51.8 28.4 41% 29.95 0.0
03 01:55 S 8 10.00 Fair CLR 51.8 30.2 44% 29.96 0.0
03 01:35 S 9 10.00 Fair CLR 51.8 30.2 44% 29.97 0.0
03 01:15 S 9 10.00 Fair CLR 51.8 30.2 44% 29.97 0.0
03 00:55 S 10 10.00 Fair CLR 51.8 30.2 44% 29.97 0.0
03 00:35 S 9 10.00 Fair CLR 51.8 30.2 44% 29.97 0.0
03 00:15 S 9 10.00 Fair CLR 51.8 30.2 44% 29.98 0.0
02 23:55 S 9 10.00 Fair CLR 51.8 30.2 44% 29.99 0.0
02 23:15 S 9 10.00 Fair CLR 51.8 30.2 44% 30 0.0
02 22:55 S 8 10.00 Fair CLR 53.6 30.2 41% 30 0.0
02 22:35 S 8 10.00 Fair CLR 51.8 28.4 41% 30.01 0.0
02 22:15 S 7 10.00 Fair CLR 53.6 28.4 38% 30.02 0.0
02 21:55 S 8 10.00 Fair CLR 53.6 26.6 35% 30.02 0.0
02 21:35 S 7 10.00 Fair CLR 53.6 26.6 35% 30.02 0.0
02 21:15 S 6 10.00 Fair CLR 53.6 26.6 35% 30.02 0.0
02 20:55 S 6 10.00 Fair CLR 55.4 24.8 31% 30.03 0.0
02 20:35 S 5 10.00 Fair CLR 59 23 25% 30.02 0.0
02 20:10 SW 8 10.00 Fair CLR 60.8 23 23% 30.02 0.0
02 19:55 SW 7 10.00 Fair CLR 60.8 23 23% 30.02 0.0
02 19:35 SW 7 10.00 Fair CLR 64.4 21.2 19% 30.03 0.0
02 19:15 SW 7 10.00 Fair CLR 64.4 21.2 19% 30.03 0.0
02 18:35 SW 6 G 10 10.00 Fair CLR 66.2 19.4 17% 30.04 0.0
02 18:15 SW 6 10.00 Fair CLR 68 23 18% 30.05 0.0
02 17:55 W 7 10.00 Fair CLR 68 21.2 17% 30.06 0.0
02 17:35 W 8 G 16 10.00 Fair CLR 68 21.2 17% 30.06 0.0
02 17:15 W 9 G 20 10.00 Fair CLR 68 21.2 17% 30.07 0.0
02 16:55 SW 7 G 17 10.00 Fair CLR 68 23 18% 30.07 0.0
02 16:35 SW 5 G 9 10.00 Fair CLR 68 23 18% 30.08 0.0
02 16:15 N 6 G 10 10.00 Fair CLR 68 17.6 14% 30.08 0.0
02 15:35 W 3 G 18 10.00 Fair CLR 66.2 19.4 17% 30.1 0.0
02 15:15 SW 3 10.00 Fair CLR 64.4 21.2 19% 30.11 0.0
02 14:55 SW 7 10.00 Fair CLR 64.4 21.2 19% 30.12 0.0
02 14:35 W 3 10.00 Fair CLR 62.6 21.2 20% 30.12 0.0
02 14:15 W 7 10.00 Fair CLR 62.6 21.2 20% 30.13 0.0
02 13:35 NW 7 10.00 Fair CLR 62.6 21.2 20% 30.15 0.0
02 13:15 Calm 10.00 Fair CLR 60.8 21.2 22% 30.16 0.0
02 12:55 NW 6 10.00 Fair CLR 60.8 19.4 20% 30.17 0.0
02 12:35 N 5 10.00 Fair CLR 60.8 21.2 22% 30.18 0.0
02 12:15 N 3 10.00 Fair CLR 59 21.2 23% 30.19 0.0
02 11:55 N 8 10.00 Fair CLR 59 21.2 23% 30.19 0.0
02 11:35 NW 10 10.00 Fair CLR 59 21.2 23% 30.19 0.0
02 11:15 NW 5 10.00 Fair CLR 57.2 19.4 23% 30.2 0.0
02 10:55 N 6 10.00 Fair CLR 55.4 19.4 24% 30.2 0.0
02 10:35 W 6 10.00 Fair CLR 55.4 23 28% 30.2 0.0
02 10:15 W 3 10.00 Fair CLR 53.6 26.6 35% 30.2 0.0
02 09:55 W 3 10.00 Fair CLR 51.8 28.4 41% 30.21 0.0
02 09:35 W 5 10.00 Fair CLR 51.8 28.4 41% 30.21 0.0
02 09:15 W 3 10.00 Fair CLR 48.2 28.4 46% 30.21 0.0
02 08:55 Calm 10.00 Fair CLR 44.6 28.4 53% 30.21 0.0
02 08:35 Calm 10.00 Fair CLR 42.8 28.4 57% 30.21 0.0
02 07:55 Calm 10.00 Fair CLR 37.4 28.4 70% 30.2 0.0
02 07:35 Calm 10.00 Fair CLR 35.6 30.2 81% 30.2 0.0
02 07:15 Calm 10.00 Fair CLR 33.8 30.2 87% 30.19 0.0
02 06:55 Calm 10.00 Fair CLR 32 28.4 87% 30.19 0.0
02 06:35 Calm 10.00 Fair CLR 32 28.4 87% 30.18 0.0
02 06:15 Calm 10.00 Fair CLR 30.2 26.6 86% 30.17 0.0
02 05:55 Calm 10.00 Fair CLR 32 28.4 87% 30.17 0.0
02 05:35 Calm 10.00 Fair CLR 32 26.6 80% 30.17 0.0
02 05:15 Calm 10.00 Fair CLR 32 28.4 87% 30.17 0.0
02 04:55 Calm 10.00 Fair CLR 32 28.4 87% 30.17 0.0
02 04:35 Calm 10.00 Fair CLR 32 28.4 87% 30.17 0.0
02 04:15 Calm 10.00 Fair CLR 33.8 28.4 81% 30.16 0.0
02 03:55 Calm 10.00 Fair CLR 33.8 26.6 75% 30.16 0.0
02 03:35 Calm 10.00 Fair CLR 33.8 26.6 75% 30.16 0.0
02 03:15 Calm 10.00 Fair CLR 33.8 26.6 75% 30.16 0.0
02 02:55 Calm 10.00 Fair CLR 33.8 26.6 75% 30.16 0.0
02 02:35 Calm 10.00 Fair CLR 33.8 24.8 70% 30.16 0.0
02 02:15 Calm 10.00 Fair CLR 33.8 24.8 70% 30.15 0.0
02 01:55 N 3 10.00 Fair CLR 35.6 24.8 65% 30.16 0.0
02 01:35 N 5 10.00 Fair CLR 35.6 24.8 65% 32 30.16 0.0
02 01:15 Calm 10.00 Fair CLR 35.6 26.6 70% 30.16 0.0
02 00:55 Calm 10.00 Fair CLR 35.6 24.8 65% 30.16 0.0
02 00:35 Calm 10.00 Fair CLR 37.4 24.8 60% 30.15 0.0
02 00:15 Calm 10.00 Fair CLR 39.2 23 52% 30.15 0.0
01 23:55 Calm 10.00 Fair CLR 41 23 49% 30.14 0.0
01 23:35 NE 3 10.00 Fair CLR 42.8 23 46% 30.14 0.0
01 23:15 Calm 10.00 Fair CLR 42.8 23 46% 30.14 0.0
01 22:55 NE 3 10.00 Fair CLR 44.6 23 43% 30.13 0.0
01 22:35 NE 5 10.00 Fair CLR 44.6 21.2 39% 43 30.13 0.0
01 22:15 NE 6 10.00 Fair CLR 44.6 23 43% 42 30.13 0.0
01 21:55 NE 6 10.00 Fair CLR 46.4 21.2 37% 44 30.12 0.0
01 21:35 NE 6 10.00 Fair CLR 46.4 21.2 37% 44 30.12 0.0
01 21:15 NE 6 10.00 Fair CLR 48.2 21.2 34% 46 30.1 0.0
01 20:55 N 5 10.00 Fair CLR 50 21.2 32% 49 30.09 0.0
01 20:35 N 6 10.00 Fair CLR 51.8 21.2 30% 30.08 0.0
01 20:15 N 7 10.00 Fair CLR 53.6 21.2 28% 30.07 0.0
01 19:55 N 10 10.00 Fair CLR 57.2 21.2 25% 30.07 0.0
01 19:30 N 12 G 17 10.00 Fair CLR 59 21.2 23% 30.05 0.0
01 19:15 N 13 10.00 Fair CLR 59 23 25% 30.05 0.0
01 18:55 N 14 G 20 10.00 Fair CLR 60.8 23 23% 30.05 0.0
01 18:35 N 13 G 18 10.00 Fair CLR 60.8 23 23% 30.05 0.0
01 18:15 NW 14 G 18 10.00 Partly Cloudy SCT085 60.8 23 23% 30.05 0.0
01 17:55 N 17 G 23 10.00 Mostly Cloudy BKN085 62.6 23 22% 30.04 0.0
01 17:35 NW 12 10.00 Partly Cloudy SCT080 SCT090 60.8 23 23% 30.05 0.0
01 17:15 NW 13 G 22 10.00 Partly Cloudy SCT080 62.6 23 22% 30.05 0.0
01 16:55 N 16 G 21 10.00 Partly Cloudy SCT080 62.6 23 22% 30.05 0.0
01 16:35 N 14 G 18 10.00 Partly Cloudy SCT080 SCT090 62.6 23 22% 30.06 0.0
01 16:15 N 13 G 17 10.00 Partly Cloudy SCT080 SCT090 62.6 23 22% 30.06 0.0
01 15:55 NW 13 10.00 Partly Cloudy SCT080 64.4 23 21% 30.07 0.0
01 15:35 NW 17 10.00 Partly Cloudy SCT075 64.4 23 21% 30.07 0.0
01 15:15 N 13 G 22 10.00 Partly Cloudy SCT075 64.4 23 21% 30.07 0.0
01 14:55 N 10 G 18 10.00 Fair CLR 64.4 23 21% 30.08 0.0
01 14:35 NW 15 G 21 10.00 Partly Cloudy SCT075 62.6 24.8 24% 30.08 0.0
01 14:15 NW 14 G 18 10.00 Fair CLR 62.6 23 22% 30.08 0.0
01 13:55 NW 14 G 21 10.00 Partly Cloudy SCT120 64.4 24.8 22% 30.09 0.0
01 13:35 NW 13 G 18 10.00 Fair CLR 62.6 26.6 25% 30.09 0.0
01 13:15 NW 13 G 16 10.00 Partly Cloudy SCT110 62.6 26.6 25% 30.09 0.0
01 12:55 NW 12 G 21 10.00 Mostly Cloudy BKN110 62.6 26.6 25% 30.1 0.0
01 12:35 NW 14 G 22 10.00 Partly Cloudy SCT110 62.6 24.8 24% 30.1 0.0
01 12:15 NW 15 G 22 10.00 Partly Cloudy SCT120 62.6 28.4 27% 30.1 0.0
01 11:55 NW 13 10.00 Mostly Cloudy BKN120 60.8 26.6 27% 30.1 0.0
01 11:35 W 13 G 20 10.00 Partly Cloudy SCT110 60.8 32 34% 30.11 0.0
01 11:15 W 14 G 21 10.00 Mostly Cloudy BKN110 59 32 36% 30.11 0.0
01 10:55 W 13 G 20 10.00 Partly Cloudy SCT110 55.4 32 41% 30.11 0.0
01 10:35 W 10 10.00 Fair CLR 55.4 33.8 44% 30.12 0.0
01 10:15 W 8 10.00 Fair CLR 53.6 33.8 47% 30.12 0.0
01 09:55 NW 9 G 16 10.00 Fair CLR 51.8 33.8 50% 30.12 0.0
01 09:35 NW 13 10.00 Fair CLR 51.8 33.8 50% 30.12 0.0
01 09:15 NW 10 10.00 Fair CLR 50 35.6 58% 46 30.12 0.0
01 08:55 NW 5 10.00 Fair CLR 50 35.6 58% 49 30.11 0.0
01 08:35 SW 5 10.00 Fair CLR 46.4 35.6 66% 45 30.11 0.0
01 08:15 W 5 10.00 Fair CLR 44.6 33.8 66% 43 30.11 0.0
01 07:55 Calm 10.00 Fair CLR 42.8 32 66% 30.11 0.0
01 07:35 Calm 10.00 Fair CLR 39.2 33.8 81% 30.11 0.0
01 07:15 Calm 10.00 Fair CLR 37.4 35.6 93% 30.1 0.0
01 06:55 Calm 10.00 Fair CLR 35.6 32 87% 30.09 0.0
01 06:35 S 3 10.00 Fair CLR 33.8 32 93% 30.09 0.0
01 06:15 S 6 7.00 Fair CLR 33.8 32 93% 29 30.09 0.0
01 05:55 Calm 10.00 Fair CLR 33.8 32 93% 30.08 0.0
01 05:35 S 3 10.00 Fair CLR 33.8 32 93% 30.09 0.0
01 05:15 Calm 10.00 Fair CLR 35.6 33.8 93% 30.09 0.0
01 04:55 Calm 10.00 Fair CLR 33.8 32 93% 30.09 0.0
01 04:35 S 6 10.00 Fair CLR 33.8 32 93% 29 30.09 0.0
01 04:15 Calm 10.00 Fair CLR 35.6 32 87% 30.09 0.0
01 03:55 Calm 10.00 Fair CLR 33.8 32 93% 30.1 0.0
01 03:35 Calm 10.00 Fair CLR 35.6 33.8 93% 30.1 0.0
01 03:15 Calm 10.00 Fair CLR 35.6 33.8 93% 30.1 0.0
01 02:55 S 5 10.00 Fair CLR 35.6 33.8 93% 32 30.11 0.0
01 02:35 S 3 10.00 Fair CLR 35.6 33.8 93% 30.12 0.0
01 02:15 Calm 10.00 Fair CLR 35.6 33.8 93% 30.12 0.0
01 01:55 SW 3 10.00 Fair CLR 37.4 33.8 87% 30.13 0.0
01 01:35 S 3 10.00 Fair CLR 35.6 33.8 93% 30.13 0.0
01 01:15 Calm 10.00 Fair CLR 37.4 33.8 87% 30.13 0.0
01 00:55 Calm 10.00 Fair CLR 37.4 32 81% 30.14 0.0
Date Time (cdt) Wind (mph) Vis. (mi.) Weather Sky Cond. Air Dwpt Max. Min. Relative Humidity Wind Chill (°F) Heat Index (°F) altimeter (in) sea level (mb) 1 hr 3 hr 6 hr
6 hour
Temperature (ºF) Pressure Precipitation (in)